createdAt,value
2023-02-25T00:00:56.388Z,96752.41
2023-02-25T00:03:24.169Z,96763.31
2023-02-25T00:05:51.952Z,96771.75
2023-02-25T00:08:19.662Z,96781.41
2023-02-25T00:10:47.415Z,96771.28
2023-02-25T00:13:18.580Z,96777.81
2023-02-25T00:15:46.382Z,96772.19
2023-02-25T00:18:14.048Z,96776.78
2023-02-25T00:20:42.201Z,96778.28
2023-02-25T00:23:09.862Z,96778.94
2023-02-25T00:25:37.751Z,96781.41
2023-02-25T00:28:06.466Z,96788.38
2023-02-25T00:30:36.401Z,96783.44
2023-02-25T00:33:05.548Z,96775.34
2023-02-25T00:35:34.304Z,96775.13
2023-02-25T00:38:14.939Z,96779.81
2023-02-25T00:40:43.261Z,96784.78
2023-02-25T00:43:10.945Z,96784.13
2023-02-25T00:45:41.395Z,96786.00
2023-02-25T00:48:09.706Z,96778.50
2023-02-25T00:50:39.670Z,96774.13
2023-02-25T00:53:07.391Z,96777.38
2023-02-25T00:55:35.044Z,96780.06
2023-02-25T00:58:03.054Z,96783.69
2023-02-25T01:00:35.904Z,96788.75
2023-02-25T01:03:09.646Z,96785.91
2023-02-25T01:05:41.828Z,96784.25
2023-02-25T01:08:10.954Z,96784.56
2023-02-25T01:10:38.603Z,96776.19
2023-02-25T01:13:06.223Z,96784.13
2023-02-25T01:15:33.837Z,96783.34
2023-02-25T01:18:01.560Z,96786.16
2023-02-25T01:20:30.786Z,96786.28
2023-02-25T01:22:58.560Z,96787.72
2023-02-25T01:25:26.993Z,96784.69
2023-02-25T01:27:56.242Z,96793.47
2023-02-25T01:30:24.658Z,96790.56
2023-02-25T01:32:52.458Z,96792.63
2023-02-25T01:35:20.249Z,96790.38
2023-02-25T01:37:49.896Z,96786.09
2023-02-25T01:40:18.896Z,96790.25
2023-02-25T01:42:47.175Z,96786.75
2023-02-25T01:45:32.988Z,96795.44
2023-02-25T01:48:15.825Z,96788.34
2023-02-25T01:50:48.864Z,96794.47
2023-02-25T01:53:26.196Z,96789.72
2023-02-25T01:55:54.679Z,96798.16
2023-02-25T01:58:23.443Z,96794.88
2023-02-25T02:00:55.606Z,96801.16
2023-02-25T02:03:27.403Z,96802.28
2023-02-25T02:06:01.151Z,96805.44
2023-02-25T02:08:32.773Z,96817.69
2023-02-25T02:11:01.504Z,96805.97
2023-02-25T02:13:29.714Z,96807.00
2023-02-25T02:16:13.499Z,96803.88
2023-02-25T02:18:48.884Z,96813.97
2023-02-25T02:21:36.835Z,96813.09
2023-02-25T02:24:53.108Z,96820.06
2023-02-25T02:27:26.919Z,96809.06
2023-02-25T02:30:26.785Z,96809.06
2023-02-25T02:33:02.428Z,96818.94
2023-02-25T02:35:37.420Z,96820.53
2023-02-25T02:38:13.701Z,96811.78
2023-02-25T02:40:48.084Z,96816.72
2023-02-25T02:43:26.365Z,96808.81
2023-02-25T02:46:00.259Z,96810.84
2023-02-25T02:48:37.277Z,96821.84
2023-02-25T02:51:11.149Z,96817.03
2023-02-25T02:53:44.499Z,96825.88
2023-02-25T02:56:30.565Z,96830.41
2023-02-25T02:59:03.510Z,96825.00
2023-02-25T03:01:34.616Z,96834.22
2023-02-25T03:04:07.943Z,96828.81
2023-02-25T03:06:40.352Z,96819.63
2023-02-25T03:09:12.031Z,96833.56
2023-02-25T03:11:39.772Z,96826.84
2023-02-25T03:14:09.088Z,96829.97
2023-02-25T03:16:41.495Z,96830.88
2023-02-25T03:19:15.079Z,96839.44
2023-02-25T03:21:47.095Z,96835.59
2023-02-25T03:24:22.281Z,96830.66
2023-02-25T03:26:51.527Z,96836.72
2023-02-25T03:29:20.839Z,96829.63
2023-02-25T03:31:56.508Z,96836.72
2023-02-25T03:34:29.882Z,96837.38
2023-02-25T03:37:00.314Z,96838.03
2023-02-25T03:39:30.431Z,96846.13
2023-02-25T03:42:03.682Z,96838.03
2023-02-25T03:44:34.350Z,96845.03
2023-02-25T03:47:07.980Z,96848.03
2023-02-25T03:49:42.886Z,96834.22
2023-02-25T03:52:16.393Z,96850.63
2023-02-25T03:54:44.145Z,96843.63
2023-02-25T03:57:11.853Z,96852.16
2023-02-25T03:59:39.520Z,96855.31
2023-02-25T04:02:07.871Z,96844.53
2023-02-25T04:04:37.453Z,96852.94
2023-02-25T04:07:05.192Z,96865.66
2023-02-25T04:09:32.943Z,96865.84
2023-02-25T04:12:00.700Z,96851.09
2023-02-25T04:14:28.391Z,96856.25
2023-02-25T04:16:56.080Z,96855.47
2023-02-25T04:19:23.751Z,96855.94
2023-02-25T04:21:52.763Z,96854.81
2023-02-25T04:24:20.453Z,96860.22
2023-02-25T04:26:48.321Z,96867.28
2023-02-25T04:29:16.038Z,96879.09
2023-02-25T04:31:44.140Z,96874.53
2023-02-25T04:34:12.434Z,96894.00
2023-02-25T04:36:41.467Z,96886.72
2023-02-25T04:39:13.498Z,96885.31
2023-02-25T04:41:41.520Z,96885.59
2023-02-25T04:44:10.005Z,96891.00
2023-02-25T04:46:40.191Z,96897.31
2023-02-25T04:49:09.452Z,96896.31
2023-02-25T04:51:39.260Z,96889.56
2023-02-25T04:54:07.466Z,96888.75
2023-02-25T04:56:37.372Z,96891.91
2023-02-25T04:59:05.332Z,96890.19
2023-02-25T05:01:33.464Z,96886.25
2023-02-25T05:04:01.735Z,96882.44
2023-02-25T05:06:29.925Z,96890.06
2023-02-25T05:08:59.072Z,96875.47
2023-02-25T05:11:28.384Z,96878.34
2023-02-25T05:13:58.399Z,96879.69
2023-02-25T05:16:26.806Z,96882.44
2023-02-25T05:18:54.806Z,96887.19
2023-02-25T05:21:24.344Z,96876.06
2023-02-25T05:23:53.748Z,96876.63
2023-02-25T05:26:24.290Z,96887.31
2023-02-25T05:28:54.530Z,96875.06
2023-02-25T05:31:25.180Z,96904.16
2023-02-25T05:33:53.037Z,96907.19
2023-02-25T05:36:21.496Z,96904.25
2023-02-25T05:38:50.000Z,96895.59
2023-02-25T05:41:17.814Z,96898.34
2023-02-25T05:43:45.975Z,96892.91
2023-02-25T05:46:14.460Z,96902.44
2023-02-25T05:48:46.647Z,96901.31
2023-02-25T05:51:18.240Z,96893.22
2023-02-25T05:53:47.974Z,96890.34
2023-02-25T05:56:17.487Z,96907.19
2023-02-25T05:58:46.695Z,96917.50
2023-02-25T06:01:16.272Z,96910.72
2023-02-25T06:03:47.375Z,96911.44
2023-02-25T06:06:17.856Z,96909.41
2023-02-25T06:08:45.675Z,96921.50
2023-02-25T06:11:17.992Z,96914.81
2023-02-25T06:13:45.700Z,96913.34
2023-02-25T06:16:14.642Z,96891.91
2023-02-25T06:18:42.495Z,96887.84
2023-02-25T06:21:14.216Z,96894.16
2023-02-25T06:23:43.968Z,96887.38
2023-02-25T06:26:13.553Z,96885.59
2023-02-25T06:28:41.605Z,96879.94
2023-02-25T06:31:10.849Z,96908.47
2023-02-25T06:33:39.229Z,96925.59
2023-02-25T06:36:08.424Z,96940.19
2023-02-25T06:38:38.281Z,96957.03
2023-02-25T06:41:10.157Z,96964.13
2023-02-25T06:43:38.131Z,96958.19
2023-02-25T06:46:07.695Z,96963.88
2023-02-25T06:48:35.555Z,96962.28
2023-02-25T06:51:09.014Z,96972.16
2023-02-25T06:53:38.661Z,96973.09
2023-02-25T06:56:08.325Z,96979.66
2023-02-25T06:58:36.649Z,96983.50
2023-02-25T07:01:07.502Z,96977.88
2023-02-25T07:03:35.251Z,96981.38
2023-02-25T07:06:04.940Z,96988.03
2023-02-25T07:08:33.090Z,96989.13
2023-02-25T07:11:15.326Z,96980.38
2023-02-25T07:13:44.301Z,96981.97
2023-02-25T07:16:14.470Z,96982.63
2023-02-25T07:18:42.894Z,96981.69
2023-02-25T07:21:12.203Z,96973.22
2023-02-25T07:23:40.051Z,96973.22
2023-02-25T07:26:09.656Z,96977.28
2023-02-25T07:28:39.336Z,96978.88
2023-02-25T07:31:11.592Z,96971.56
2023-02-25T07:33:39.346Z,96980.44
2023-02-25T07:36:07.205Z,96980.44
2023-02-25T07:38:34.957Z,96970.31
2023-02-25T07:41:05.801Z,96975.25
2023-02-25T07:43:33.450Z,96988.22
2023-02-25T07:46:03.251Z,96988.06
2023-02-25T07:48:31.220Z,96995.88
2023-02-25T07:51:05.688Z,96996.47
2023-02-25T07:53:33.675Z,97002.84
2023-02-25T07:56:01.407Z,97008.47
2023-02-25T07:58:29.535Z,97007.63
2023-02-25T08:00:57.225Z,97016.13
2023-02-25T08:03:26.269Z,97012.31
2023-02-25T08:05:55.040Z,97012.22
2023-02-25T08:08:23.117Z,97014.41
2023-02-25T08:10:50.765Z,97007.56
2023-02-25T08:13:19.358Z,97008.47
2023-02-25T08:15:47.422Z,97005.16
2023-02-25T08:18:15.203Z,97002.63
2023-02-25T08:20:48.610Z,96991.50
2023-02-25T08:23:16.281Z,96996.63
2023-02-25T08:25:43.922Z,97007.16
2023-02-25T08:28:11.546Z,96993.53
2023-02-25T08:30:39.233Z,96990.38
2023-02-25T08:33:06.840Z,96994.91
2023-02-25T08:35:34.483Z,97000.97
2023-02-25T08:38:03.602Z,97001.19
2023-02-25T08:40:31.763Z,96992.66
2023-02-25T08:42:59.664Z,97003.13
2023-02-25T08:45:28.855Z,97008.38
2023-02-25T08:47:56.500Z,97010.63
2023-02-25T08:50:24.533Z,97001.44
2023-02-25T08:52:52.325Z,97004.16
2023-02-25T08:55:24.656Z,97001.91
2023-02-25T08:57:52.375Z,97012.94
2023-02-25T09:00:21.417Z,96999.44
2023-02-25T09:02:49.394Z,97007.78
2023-02-25T09:05:19.535Z,97013.06
2023-02-25T09:07:48.341Z,97019.25
2023-02-25T09:10:16.006Z,97027.13
2023-02-25T09:12:45.332Z,97019.44
2023-02-25T09:15:14.561Z,97024.16
2023-02-25T09:17:42.300Z,97015.59
2023-02-25T09:20:12.136Z,97026.38
2023-02-25T09:22:41.141Z,97024.56
2023-02-25T09:25:09.549Z,97031.56
2023-02-25T09:27:37.272Z,97015.16
2023-02-25T09:30:07.496Z,97022.81
2023-02-25T09:32:35.373Z,97016.94
2023-02-25T09:35:07.300Z,97017.19
2023-02-25T09:37:35.256Z,97010.59
2023-02-25T09:40:03.078Z,97020.56
2023-02-25T09:42:51.598Z,97029.06
2023-02-25T09:45:24.549Z,97024.09
2023-02-25T09:47:56.898Z,97019.97
2023-02-25T09:50:28.912Z,97021.66
2023-02-25T09:53:07.367Z,97022.28
2023-02-25T09:55:37.986Z,97009.34
2023-02-25T09:58:13.839Z,97010.03
2023-02-25T10:00:47.313Z,97021.31
2023-02-25T10:03:23.206Z,97010.94
2023-02-25T10:05:58.704Z,97015.88
2023-02-25T10:08:32.548Z,97013.63
2023-02-25T10:11:04.949Z,97011.59
2023-02-25T10:13:45.212Z,97006.75
2023-02-25T10:16:31.232Z,97006.84
2023-02-25T10:19:13.300Z,96999.59
2023-02-25T10:22:02.391Z,97003.44
2023-02-25T10:24:35.760Z,96984.38
2023-02-25T10:27:11.884Z,96992.19
2023-02-25T10:29:46.383Z,96989.03
2023-02-25T10:32:21.896Z,96983.88
2023-02-25T10:34:51.926Z,96973.50
2023-02-25T10:37:23.675Z,96985.78
2023-02-25T10:39:53.849Z,96987.72
2023-02-25T10:42:21.533Z,96985.44
2023-02-25T10:44:51.296Z,96998.06
2023-02-25T10:47:30.241Z,96990.66
2023-02-25T10:50:16.458Z,96985.47
2023-02-25T10:52:56.450Z,96989.53
2023-02-25T10:55:32.652Z,96976.22
2023-02-25T10:58:00.988Z,96985.88
2023-02-25T11:00:30.992Z,96979.19
2023-02-25T11:03:02.147Z,96973.19
2023-02-25T11:05:37.286Z,96968.81
2023-02-25T11:08:07.859Z,96968.81
2023-02-25T11:10:36.344Z,96975.03
2023-02-25T11:13:06.076Z,96963.88
2023-02-25T11:15:45.237Z,96951.47
2023-02-25T11:18:22.882Z,96959.53
2023-02-25T11:20:54.696Z,96955.25
2023-02-25T11:23:27.903Z,96961.72
2023-02-25T11:25:56.608Z,96980.25
2023-02-25T11:28:30.203Z,96968.34
2023-02-25T11:31:07.071Z,96967.63
2023-02-25T11:33:40.410Z,96962.22
2023-02-25T11:36:09.060Z,96964.94
2023-02-25T11:38:39.667Z,96970.56
2023-02-25T11:41:17.750Z,96960.41
2023-02-25T11:43:45.730Z,96965.88
2023-02-25T11:46:23.111Z,96948.41
2023-02-25T11:48:56.851Z,96951.41
2023-02-25T11:51:29.050Z,96964.16
2023-02-25T11:54:22.081Z,96971.97
2023-02-25T11:56:52.478Z,96971.69
2023-02-25T11:59:34.633Z,96961.91
2023-02-25T12:02:27.399Z,96950.03
2023-02-25T12:05:16.824Z,96968.00
2023-02-25T12:08:14.464Z,96959.88
2023-02-25T12:11:29.906Z,96952.63
2023-02-25T12:14:54.699Z,96954.91
2023-02-25T12:18:08.452Z,96947.19
2023-02-25T12:21:00.428Z,96941.13
2023-02-25T12:24:13.443Z,96940.00
2023-02-25T12:27:01.625Z,96941.50
2023-02-25T12:29:48.284Z,96941.69
2023-02-25T12:32:27.544Z,96943.75
2023-02-25T12:35:17.096Z,96930.78
2023-02-25T12:38:13.735Z,96939.56
2023-02-25T12:41:09.895Z,96936.31
2023-02-25T12:43:48.951Z,96934.66
2023-02-25T12:46:25.985Z,96937.38
2023-02-25T12:49:15.036Z,96940.16
2023-02-25T12:52:04.534Z,96944.56
2023-02-25T12:55:07.882Z,96938.25
2023-02-25T12:57:49.907Z,96948.81
2023-02-25T13:00:34.176Z,96949.31
2023-02-25T13:03:21.349Z,96946.03
2023-02-25T13:06:17.675Z,96956.16
2023-02-25T13:09:01.148Z,96946.25
2023-02-25T13:12:10.089Z,96957.53
2023-02-25T13:14:47.017Z,96959.97
2023-02-25T13:17:29.109Z,96977.34
2023-02-25T13:20:34.898Z,96987.09
2023-02-25T13:23:32.421Z,97019.06
2023-02-25T13:26:14.224Z,97017.53
2023-02-25T13:29:21.001Z,97014.59
2023-02-25T13:31:59.046Z,97025.91
2023-02-25T13:34:40.723Z,97014.13
2023-02-25T13:37:24.960Z,97018.56
2023-02-25T13:40:20.615Z,97020.03
2023-02-25T13:43:22.081Z,97022.25
2023-02-25T13:46:22.568Z,97026.25
2023-02-25T13:49:10.723Z,97032.59
2023-02-25T13:51:57.671Z,97020.81
2023-02-25T13:54:40.412Z,97024.63
2023-02-25T13:57:26.259Z,97016.66
2023-02-25T14:00:25.610Z,97023.00
2023-02-25T14:03:16.829Z,97020.41
2023-02-25T14:06:16.555Z,97030.84
2023-02-25T14:09:12.437Z,97027.84
2023-02-25T14:11:57.779Z,97038.06
2023-02-25T14:15:00.791Z,97047.16
2023-02-25T14:17:41.339Z,97033.28
2023-02-25T14:20:24.826Z,97040.06
2023-02-25T14:22:57.180Z,97019.63
2023-02-25T14:25:55.553Z,96993.38
2023-02-25T14:28:32.434Z,96999.38
2023-02-25T14:31:13.003Z,97022.78
2023-02-25T14:34:12.340Z,97012.31
2023-02-25T14:37:09.211Z,97012.91
2023-02-25T14:39:51.042Z,97014.94
2023-02-25T14:42:34.917Z,97014.75
2023-02-25T14:45:15.782Z,97008.69
2023-02-25T14:47:49.822Z,97013.25
2023-02-25T14:50:23.743Z,97014.94
2023-02-25T14:53:33.051Z,97024.44
2023-02-25T14:56:21.669Z,97028.16
2023-02-25T14:59:19.869Z,97037.78
2023-02-25T15:02:17.213Z,97044.25
2023-02-25T15:05:05.212Z,97052.41
2023-02-25T15:07:54.304Z,97049.91
2023-02-25T15:10:34.587Z,97063.75
2023-02-25T15:13:23.461Z,97070.56
2023-02-25T15:16:13.849Z,97069.41
2023-02-25T15:19:19.617Z,97060.34
2023-02-25T15:21:49.732Z,97061.91
2023-02-25T15:24:39.833Z,97061.28
2023-02-25T15:27:34.344Z,97058.09
2023-02-25T15:30:05.769Z,97067.03
2023-02-25T15:32:52.371Z,97069.94
2023-02-25T15:35:23.078Z,97076.63
2023-02-25T15:38:09.642Z,97075.81
2023-02-25T15:40:50.681Z,97078.06
2023-02-25T15:43:46.404Z,97077.63
2023-02-25T15:46:41.274Z,97073.94
2023-02-25T15:49:23.124Z,97080.13
2023-02-25T15:51:54.092Z,97089.47
2023-02-25T15:54:50.360Z,97089.34
2023-02-25T15:57:37.189Z,97101.84
2023-02-25T16:00:26.023Z,97092.69
2023-02-25T16:03:03.626Z,97097.91
2023-02-25T16:05:36.292Z,97097.25
2023-02-25T16:08:14.339Z,97111.34
2023-02-25T16:10:47.630Z,97115.00
2023-02-25T16:13:18.092Z,97118.19
2023-02-25T16:15:50.351Z,97125.56
2023-02-25T16:18:25.943Z,97119.41
2023-02-25T16:21:01.626Z,97118.34
2023-02-25T16:23:31.784Z,97120.09
2023-02-25T16:26:09.176Z,97120.75
2023-02-25T16:28:44.572Z,97139.59
2023-02-25T16:31:19.558Z,97146.28
2023-02-25T16:33:55.322Z,97139.16
2023-02-25T16:36:33.746Z,97152.94
2023-02-25T16:39:06.793Z,97159.28
2023-02-25T16:41:38.531Z,97162.44
2023-02-25T16:44:07.761Z,97164.16
2023-02-25T16:46:39.234Z,97163.38
2023-02-25T16:49:13.886Z,97169.44
2023-02-25T16:51:44.438Z,97166.72
2023-02-25T16:54:18.383Z,97178.91
2023-02-25T16:56:48.979Z,97173.53
2023-02-25T16:59:19.669Z,97171.66
2023-02-25T17:01:50.367Z,97176.25
2023-02-25T17:04:21.930Z,97182.41
2023-02-25T17:07:09.126Z,97187.19
2023-02-25T17:09:37.112Z,97191.44
2023-02-25T17:12:05.717Z,97197.00
2023-02-25T17:14:33.603Z,97206.34
2023-02-25T17:17:01.579Z,97216.47
2023-02-25T17:19:31.880Z,97209.81
2023-02-25T17:22:00.961Z,97215.69
2023-02-25T17:24:32.360Z,97225.97
2023-02-25T17:27:01.590Z,97224.50
2023-02-25T17:29:34.820Z,97233.06
2023-02-25T17:32:14.935Z,97233.53
2023-02-25T17:34:44.811Z,97235.91
2023-02-25T17:37:14.222Z,97230.66
2023-02-25T17:39:44.260Z,97239.88
2023-02-25T17:42:33.044Z,97251.38
2023-02-25T17:45:02.314Z,97244.75
2023-02-25T17:47:32.217Z,97259.47
2023-02-25T17:50:14.270Z,97258.53
2023-02-25T17:52:42.106Z,97264.09
2023-02-25T17:55:23.456Z,97267.53
2023-02-25T17:57:53.659Z,97264.72
2023-02-25T18:00:23.794Z,97267.53
2023-02-25T18:03:15.450Z,97265.81
2023-02-25T18:05:52.109Z,97280.25
2023-02-25T18:08:22.534Z,97288.16
2023-02-25T18:10:55.101Z,97294.19
2023-02-25T18:13:31.083Z,97287.88
2023-02-25T18:16:42.263Z,97300.25
2023-02-25T18:19:26.935Z,97309.06
2023-02-25T18:21:56.202Z,97305.41
2023-02-25T18:24:30.129Z,97313.47
2023-02-25T18:27:16.809Z,97312.56
2023-02-25T18:29:44.530Z,97324.47
2023-02-25T18:32:12.920Z,97317.91
2023-02-25T18:34:41.402Z,97321.06
2023-02-25T18:37:14.394Z,97323.31
2023-02-25T18:39:42.220Z,97328.41
2023-02-25T18:42:14.956Z,97326.81
2023-02-25T18:44:43.476Z,97332.19
2023-02-25T18:47:11.262Z,97337.13
2023-02-25T18:49:39.532Z,97334.31
2023-02-25T18:52:12.549Z,97344.25
2023-02-25T18:54:42.934Z,97346.97
2023-02-25T18:57:18.126Z,97352.94
2023-02-25T18:59:45.819Z,97340.94
2023-02-25T19:02:26.404Z,97342.41
2023-02-25T19:04:55.381Z,97351.06
2023-02-25T19:07:25.586Z,97355.97
2023-02-25T19:09:55.784Z,97357.72
2023-02-25T19:12:25.465Z,97357.44
2023-02-25T19:15:01.599Z,97361.84
2023-02-25T19:17:30.129Z,97352.34
2023-02-25T19:19:58.383Z,97355.84
2023-02-25T19:22:27.178Z,97352.06
2023-02-25T19:24:56.179Z,97358.41
2023-02-25T19:27:26.313Z,97363.50
2023-02-25T19:29:56.717Z,97360.75
2023-02-25T19:32:25.866Z,97367.22
2023-02-25T19:34:53.763Z,97372.59
2023-02-25T19:37:21.757Z,97370.88
2023-02-25T19:39:49.508Z,97375.09
2023-02-25T19:42:18.757Z,97382.41
2023-02-25T19:44:46.551Z,97385.22
2023-02-25T19:47:14.696Z,97388.03
2023-02-25T19:49:42.430Z,97390.25
2023-02-25T19:52:10.062Z,97391.72
2023-02-25T19:54:37.780Z,97395.00
2023-02-25T19:57:05.722Z,97396.59
2023-02-25T19:59:34.845Z,97402.09
2023-02-25T20:02:03.099Z,97398.47
2023-02-25T20:04:31.811Z,97404.78
2023-02-25T20:06:59.783Z,97417.28
2023-02-25T20:09:27.680Z,97418.13
2023-02-25T20:11:55.363Z,97426.31
2023-02-25T20:14:23.977Z,97424.91
2023-02-25T20:16:53.189Z,97432.31
2023-02-25T20:19:20.918Z,97434.03
2023-02-25T20:21:48.622Z,97435.97
2023-02-25T20:24:16.364Z,97439.16
2023-02-25T20:26:45.045Z,97449.31
2023-02-25T20:29:12.700Z,97445.50
2023-02-25T20:31:40.937Z,97448.50
2023-02-25T20:34:14.000Z,97443.91
2023-02-25T20:36:49.753Z,97457.97
2023-02-25T20:39:33.307Z,97457.97
2023-02-25T20:42:03.385Z,97460.91
2023-02-25T20:44:31.650Z,97469.50
2023-02-25T20:46:59.897Z,97477.03
2023-02-25T20:49:29.317Z,97482.22
2023-02-25T20:51:57.642Z,97480.31
2023-02-25T20:54:25.408Z,97478.47
2023-02-25T20:56:53.136Z,97492.41
2023-02-25T20:59:20.924Z,97486.44
2023-02-25T21:01:48.742Z,97495.16
2023-02-25T21:04:16.586Z,97494.00
2023-02-25T21:06:45.680Z,97500.69
2023-02-25T21:09:13.508Z,97490.81
2023-02-25T21:11:42.357Z,97498.38
2023-02-25T21:14:10.402Z,97502.78
2023-02-25T21:16:38.554Z,97500.38
2023-02-25T21:19:07.193Z,97516.31
2023-02-25T21:21:37.211Z,97511.34
2023-02-25T21:24:07.749Z,97512.94
2023-02-25T21:26:39.103Z,97519.50
2023-02-25T21:29:06.856Z,97518.03
2023-02-25T21:31:34.811Z,97514.34
2023-02-25T21:34:03.769Z,97516.94
2023-02-25T21:36:31.606Z,97522.81
2023-02-25T21:38:59.516Z,97523.09
2023-02-25T21:41:28.685Z,97525.31
2023-02-25T21:43:57.213Z,97518.34
2023-02-25T21:46:25.818Z,97517.34
2023-02-25T21:48:56.888Z,97522.13
2023-02-25T21:51:26.287Z,97522.88
2023-02-25T21:53:55.749Z,97524.31
2023-02-25T21:56:24.557Z,97526.28
2023-02-25T21:58:55.644Z,97526.97
2023-02-25T22:01:26.067Z,97522.81
2023-02-25T22:03:53.789Z,97535.81
2023-02-25T22:06:23.726Z,97535.81
2023-02-25T22:08:52.508Z,97527.47
2023-02-25T22:11:22.683Z,97533.84
2023-02-25T22:13:50.876Z,97538.41
2023-02-25T22:16:20.876Z,97542.56
2023-02-25T22:18:48.635Z,97538.63
2023-02-25T22:21:18.600Z,97536.03
2023-02-25T22:23:48.323Z,97543.13
2023-02-25T22:26:18.085Z,97542.41
2023-02-25T22:28:46.703Z,97536.44
2023-02-25T22:31:16.535Z,97539.63
2023-02-25T22:33:46.355Z,97538.22
2023-02-25T22:36:15.187Z,97537.19
2023-02-25T22:38:44.639Z,97540.41
2023-02-25T22:41:13.918Z,97534.03
2023-02-25T22:43:41.577Z,97543.00
2023-02-25T22:46:10.659Z,97545.25
2023-02-25T22:48:39.020Z,97543.28
2023-02-25T22:51:10.211Z,97545.38
2023-02-25T22:53:38.515Z,97542.56
2023-02-25T22:56:08.969Z,97540.00
2023-02-25T22:58:38.726Z,97537.31
2023-02-25T23:01:07.171Z,97546.38
2023-02-25T23:03:35.098Z,97548.75
2023-02-25T23:06:02.854Z,97553.50
2023-02-25T23:08:31.836Z,97552.50
2023-02-25T23:11:09.812Z,97560.69
2023-02-25T23:13:37.671Z,97557.78
2023-02-25T23:16:06.258Z,97552.13
2023-02-25T23:18:33.974Z,97560.25
2023-02-25T23:21:07.727Z,97562.66
2023-02-25T23:23:39.246Z,97552.13
2023-02-25T23:26:08.492Z,97562.16
2023-02-25T23:28:36.888Z,97560.47
2023-02-25T23:31:05.315Z,97566.22
2023-02-25T23:33:33.478Z,97559.19
2023-02-25T23:36:02.035Z,97568.72
2023-02-25T23:38:29.709Z,97567.88
2023-02-25T23:41:01.449Z,97568.88
2023-02-25T23:43:29.557Z,97561.41
2023-02-25T23:45:57.254Z,97570.91
2023-02-25T23:48:24.970Z,97569.47
2023-02-25T23:50:52.627Z,97575.84
2023-02-25T23:53:20.347Z,97575.34
2023-02-25T23:55:47.982Z,97580.38
2023-02-25T23:58:17.049Z,97585.22
